Hanna, Illinois
Current Conditions -  °F | °C
As of 11:52 AM on Friday 21 Nov 2014 (Local Time) from KMLI Reporting Station
Clear Clear  
Wind Chill: 21°   Ceiling: Unl
Heat Index: 31°   Visibility: 10mi
Dew Point:   Wind: 14mph
Humidity: 38%   Direction: 170°S
Pressure: 30.36"   Gusts: NA
Location:  41.4828°N, 90.1801°W
Report Text: KMLI 211752Z 17012KT 10SM CLR M01/M13 A3036 RMK AO2 SLP290 T10061133 11006 21139 58018
Loading
Personal Weather Stations






























Interactive Weather Map New forecast layout! Learn more

10-Day Weather Forecast

Advertisements
Track Severe Weather on mobile